sensor_id;sensor_type;location;lat;lon;timestamp;pressure;altitude;pressure_sealevel;temperature;humidity
74708;BME280;63360;50.104;8.074;2022-10-16T00:01:19;96914.84;;;11.29;100.00
74708;BME280;63360;50.104;8.074;2022-10-16T00:03:47;96923.59;;;11.25;100.00
74708;BME280;63360;50.104;8.074;2022-10-16T00:06:16;96925.13;;;11.26;100.00
74708;BME280;63360;50.104;8.074;2022-10-16T00:08:43;96925.41;;;11.33;100.00
74708;BME280;63360;50.104;8.074;2022-10-16T00:11:17;96931.69;;;11.32;100.00
74708;BME280;63360;50.104;8.074;2022-10-16T00:13:46;96929.41;;;11.30;100.00
74708;BME280;63360;50.104;8.074;2022-10-16T00:16:13;96916.63;;;11.37;100.00
74708;BME280;63360;50.104;8.074;2022-10-16T00:18:40;96908.44;;;11.27;100.00
74708;BME280;63360;50.104;8.074;2022-10-16T00:21:13;96906.47;;;11.44;100.00
74708;BME280;63360;50.104;8.074;2022-10-16T00:23:40;96913.56;;;11.44;100.00
74708;BME280;63360;50.104;8.074;2022-10-16T00:26:15;96916.34;;;11.39;100.00
74708;BME280;63360;50.104;8.074;2022-10-16T00:28:42;96925.91;;;11.47;100.00
74708;BME280;63360;50.104;8.074;2022-10-16T00:31:11;96927.00;;;11.46;100.00
74708;BME280;63360;50.104;8.074;2022-10-16T00:33:39;96914.44;;;11.48;100.00
74708;BME280;63360;50.104;8.074;2022-10-16T00:36:09;96894.56;;;11.43;100.00
74708;BME280;63360;50.104;8.074;2022-10-16T00:38:35;96917.22;;;11.72;100.00
74708;BME280;63360;50.104;8.074;2022-10-16T00:41:05;96918.28;;;11.71;100.00
74708;BME280;63360;50.104;8.074;2022-10-16T00:43:33;96918.78;;;11.65;100.00
74708;BME280;63360;50.104;8.074;2022-10-16T00:46:01;96918.53;;;11.57;100.00
74708;BME280;63360;50.104;8.074;2022-10-16T00:48:27;96925.19;;;11.67;100.00
74708;BME280;63360;50.104;8.074;2022-10-16T00:50:54;96925.81;;;11.64;100.00
74708;BME280;63360;50.104;8.074;2022-10-16T00:53:23;96934.06;;;11.66;100.00
74708;BME280;63360;50.104;8.074;2022-10-16T00:55:50;96931.94;;;11.68;100.00
74708;BME280;63360;50.104;8.074;2022-10-16T00:58:16;96939.47;;;11.70;100.00
74708;BME280;63360;50.104;8.074;2022-10-16T01:00:43;96938.69;;;11.69;100.00
74708;BME280;63360;50.104;8.074;2022-10-16T01:03:32;96938.19;;;11.76;100.00
74708;BME280;63360;50.104;8.074;2022-10-16T01:06:24;96950.59;;;11.79;100.00
74708;BME280;63360;50.104;8.074;2022-10-16T01:09:03;96948.44;;;11.81;100.00
74708;BME280;63360;50.104;8.074;2022-10-16T01:11:59;96934.31;;;11.82;100.00
74708;BME280;63360;50.104;8.074;2022-10-16T01:14:34;96928.16;;;11.86;100.00
74708;BME280;63360;50.104;8.074;2022-10-16T01:17:12;96924.03;;;11.85;100.00
74708;BME280;63360;50.104;8.074;2022-10-16T01:19:58;96933.69;;;12.05;100.00
74708;BME280;63360;50.104;8.074;2022-10-16T01:22:36;96934.31;;;12.02;100.00
74708;BME280;63360;50.104;8.074;2022-10-16T01:25:09;96939.22;;;12.04;100.00
74708;BME280;63360;50.104;8.074;2022-10-16T01:27:39;96944.41;;;12.04;100.00
74708;BME280;63360;50.104;8.074;2022-10-16T01:32:40;96946.84;;;12.09;100.00
74708;BME280;63360;50.104;8.074;2022-10-16T01:35:17;96937.03;;;12.06;100.00
74708;BME280;63360;50.104;8.074;2022-10-16T01:37:50;96949.44;;;12.09;100.00
74708;BME280;63360;50.104;8.074;2022-10-16T01:40:20;96950.66;;;12.11;100.00
74708;BME280;63360;50.104;8.074;2022-10-16T01:42:52;96950.00;;;12.14;100.00
74708;BME280;63360;50.104;8.074;2022-10-16T01:45:21;96938.38;;;12.12;100.00
74708;BME280;63360;50.104;8.074;2022-10-16T01:47:49;96941.75;;;12.12;100.00
74708;BME280;63360;50.104;8.074;2022-10-16T01:50:18;96958.84;;;12.22;100.00
74708;BME280;63360;50.104;8.074;2022-10-16T01:52:48;96959.38;;;12.15;100.00
74708;BME280;63360;50.104;8.074;2022-10-16T01:55:29;96969.28;;;12.22;100.00
74708;BME280;63360;50.104;8.074;2022-10-16T01:57:59;96964.13;;;12.34;100.00
74708;BME280;63360;50.104;8.074;2022-10-16T02:00:27;96977.56;;;12.24;100.00
74708;BME280;63360;50.104;8.074;2022-10-16T02:02:55;96974.94;;;12.24;100.00
74708;BME280;63360;50.104;8.074;2022-10-16T02:05:53;96967.44;;;12.23;100.00
74708;BME280;63360;50.104;8.074;2022-10-16T02:08:25;96955.34;;;12.18;100.00
74708;BME280;63360;50.104;8.074;2022-10-16T02:10:57;96967.66;;;12.30;100.00
74708;BME280;63360;50.104;8.074;2022-10-16T02:13:41;96966.16;;;12.29;100.00
74708;BME280;63360;50.104;8.074;2022-10-16T02:16:12;96968.25;;;12.35;100.00
74708;BME280;63360;50.104;8.074;2022-10-16T02:18:41;96971.69;;;12.27;100.00
74708;BME280;63360;50.104;8.074;2022-10-16T02:21:17;96976.91;;;12.27;100.00
74708;BME280;63360;50.104;8.074;2022-10-16T02:23:59;96973.56;;;12.27;100.00
74708;BME280;63360;50.104;8.074;2022-10-16T02:26:35;96981.47;;;12.30;100.00
74708;BME280;63360;50.104;8.074;2022-10-16T02:29:05;96960.50;;;12.27;100.00
74708;BME280;63360;50.104;8.074;2022-10-16T02:31:35;96970.75;;;12.32;100.00
74708;BME280;63360;50.104;8.074;2022-10-16T02:34:05;96978.09;;;12.30;100.00
74708;BME280;63360;50.104;8.074;2022-10-16T02:36:35;96984.78;;;12.39;100.00
74708;BME280;63360;50.104;8.074;2022-10-16T02:39:02;96992.47;;;12.36;100.00
74708;BME280;63360;50.104;8.074;2022-10-16T02:41:30;96996.72;;;12.40;100.00
74708;BME280;63360;50.104;8.074;2022-10-16T02:43:57;96987.25;;;12.36;100.00
74708;BME280;63360;50.104;8.074;2022-10-16T02:46:23;96968.88;;;12.32;100.00
74708;BME280;63360;50.104;8.074;2022-10-16T02:48:50;96981.28;;;12.35;100.00
74708;BME280;63360;50.104;8.074;2022-10-16T02:51:16;96976.97;;;12.39;100.00
74708;BME280;63360;50.104;8.074;2022-10-16T02:53:42;96980.44;;;12.43;100.00
74708;BME280;63360;50.104;8.074;2022-10-16T02:56:09;96964.22;;;12.38;100.00
74708;BME280;63360;50.104;8.074;2022-10-16T02:58:35;96956.41;;;12.38;100.00
74708;BME280;63360;50.104;8.074;2022-10-16T03:01:01;96955.53;;;12.34;100.00
74708;BME280;63360;50.104;8.074;2022-10-16T03:03:28;96959.00;;;12.38;100.00
74708;BME280;63360;50.104;8.074;2022-10-16T03:05:54;96953.69;;;12.34;100.00
74708;BME280;63360;50.104;8.074;2022-10-16T03:08:21;96969.16;;;12.51;100.00
74708;BME280;63360;50.104;8.074;2022-10-16T03:10:50;96982.47;;;12.58;100.00
74708;BME280;63360;50.104;8.074;2022-10-16T03:13:16;96985.94;;;12.50;100.00
74708;BME280;63360;50.104;8.074;2022-10-16T03:15:43;96987.50;;;12.43;100.00
74708;BME280;63360;50.104;8.074;2022-10-16T03:18:09;96975.31;;;12.35;100.00
74708;BME280;63360;50.104;8.074;2022-10-16T03:20:36;96970.84;;;12.35;100.00
74708;BME280;63360;50.104;8.074;2022-10-16T03:23:02;96976.69;;;12.32;100.00
74708;BME280;63360;50.104;8.074;2022-10-16T03:25:29;96990.31;;;12.38;100.00
74708;BME280;63360;50.104;8.074;2022-10-16T03:27:55;96990.97;;;12.35;100.00
74708;BME280;63360;50.104;8.074;2022-10-16T03:30:22;96994.31;;;12.35;100.00
74708;BME280;63360;50.104;8.074;2022-10-16T03:32:48;96987.91;;;12.33;100.00
74708;BME280;63360;50.104;8.074;2022-10-16T03:35:14;96999.09;;;12.33;100.00
74708;BME280;63360;50.104;8.074;2022-10-16T03:37:41;96982.56;;;12.29;100.00
74708;BME280;63360;50.104;8.074;2022-10-16T03:40:07;96998.03;;;12.34;100.00
74708;BME280;63360;50.104;8.074;2022-10-16T03:42:34;96992.91;;;12.38;100.00
74708;BME280;63360;50.104;8.074;2022-10-16T03:45:00;96996.34;;;12.30;100.00
74708;BME280;63360;50.104;8.074;2022-10-16T03:47:27;96997.91;;;12.31;100.00
74708;BME280;63360;50.104;8.074;2022-10-16T03:49:54;96998.34;;;12.33;100.00
74708;BME280;63360;50.104;8.074;2022-10-16T03:52:20;96981.19;;;12.32;100.00
74708;BME280;63360;50.104;8.074;2022-10-16T03:54:47;96996.06;;;12.31;100.00
74708;BME280;63360;50.104;8.074;2022-10-16T03:57:13;96994.53;;;12.30;100.00
74708;BME280;63360;50.104;8.074;2022-10-16T03:59:39;97002.91;;;12.36;100.00
74708;BME280;63360;50.104;8.074;2022-10-16T04:02:06;97001.41;;;12.35;100.00
74708;BME280;63360;50.104;8.074;2022-10-16T04:04:32;96996.34;;;12.30;100.00
74708;BME280;63360;50.104;8.074;2022-10-16T04:06:58;97004.31;;;12.33;100.00
74708;BME280;63360;50.104;8.074;2022-10-16T04:09:25;97004.66;;;12.32;100.00
74708;BME280;63360;50.104;8.074;2022-10-16T04:11:51;97010.31;;;12.34;100.00
74708;BME280;63360;50.104;8.074;2022-10-16T04:14:18;97005.38;;;12.32;100.00
74708;BME280;63360;50.104;8.074;2022-10-16T04:16:44;97018.13;;;12.34;100.00
74708;BME280;63360;50.104;8.074;2022-10-16T04:19:11;97020.22;;;12.40;100.00
74708;BME280;63360;50.104;8.074;2022-10-16T04:21:37;97006.09;;;12.41;100.00
74708;BME280;63360;50.104;8.074;2022-10-16T04:24:04;97016.84;;;12.40;100.00
74708;BME280;63360;50.104;8.074;2022-10-16T04:26:31;97020.09;;;12.37;100.00
74708;BME280;63360;50.104;8.074;2022-10-16T04:28:57;97006.63;;;12.35;100.00
74708;BME280;63360;50.104;8.074;2022-10-16T04:31:24;97011.50;;;12.36;100.00
74708;BME280;63360;50.104;8.074;2022-10-16T04:33:50;97017.16;;;12.38;100.00
74708;BME280;63360;50.104;8.074;2022-10-16T04:36:17;97019.34;;;12.36;100.00
74708;BME280;63360;50.104;8.074;2022-10-16T04:38:43;97023.59;;;12.41;100.00
74708;BME280;63360;50.104;8.074;2022-10-16T04:41:09;97019.56;;;12.43;100.00
74708;BME280;63360;50.104;8.074;2022-10-16T04:43:36;97019.13;;;12.41;100.00
74708;BME280;63360;50.104;8.074;2022-10-16T04:46:02;97017.72;;;12.44;100.00
74708;BME280;63360;50.104;8.074;2022-10-16T04:48:31;97031.69;;;12.48;100.00
74708;BME280;63360;50.104;8.074;2022-10-16T04:50:57;97027.41;;;12.43;100.00
74708;BME280;63360;50.104;8.074;2022-10-16T04:53:24;97025.69;;;12.47;100.00
74708;BME280;63360;50.104;8.074;2022-10-16T04:55:50;97036.91;;;12.48;100.00
74708;BME280;63360;50.104;8.074;2022-10-16T04:58:17;97031.47;;;12.53;100.00
74708;BME280;63360;50.104;8.074;2022-10-16T05:00:44;97015.06;;;12.52;100.00
74708;BME280;63360;50.104;8.074;2022-10-16T05:03:12;97018.88;;;12.55;100.00
74708;BME280;63360;50.104;8.074;2022-10-16T05:05:44;97034.97;;;12.57;100.00
74708;BME280;63360;50.104;8.074;2022-10-16T05:08:15;97033.13;;;12.57;100.00
74708;BME280;63360;50.104;8.074;2022-10-16T05:10:42;97033.69;;;12.63;100.00
74708;BME280;63360;50.104;8.074;2022-10-16T05:13:09;97026.84;;;12.58;100.00
74708;BME280;63360;50.104;8.074;2022-10-16T05:15:36;97021.41;;;12.63;100.00
74708;BME280;63360;50.104;8.074;2022-10-16T05:18:02;97038.56;;;12.64;100.00
74708;BME280;63360;50.104;8.074;2022-10-16T05:20:29;97015.63;;;12.58;100.00
74708;BME280;63360;50.104;8.074;2022-10-16T05:22:55;97021.16;;;12.56;100.00
74708;BME280;63360;50.104;8.074;2022-10-16T05:25:21;97024.84;;;12.55;100.00
74708;BME280;63360;50.104;8.074;2022-10-16T05:27:48;97051.13;;;12.71;100.00
74708;BME280;63360;50.104;8.074;2022-10-16T05:30:16;97044.13;;;12.63;100.00
74708;BME280;63360;50.104;8.074;2022-10-16T05:32:47;97045.00;;;12.67;100.00
74708;BME280;63360;50.104;8.074;2022-10-16T05:35:15;97037.06;;;12.63;100.00
74708;BME280;63360;50.104;8.074;2022-10-16T05:37:41;97038.13;;;12.62;100.00
74708;BME280;63360;50.104;8.074;2022-10-16T05:40:09;97039.22;;;12.61;100.00
74708;BME280;63360;50.104;8.074;2022-10-16T05:42:35;97047.50;;;12.63;100.00
74708;BME280;63360;50.104;8.074;2022-10-16T05:45:02;97050.88;;;12.64;100.00
74708;BME280;63360;50.104;8.074;2022-10-16T05:47:29;97056.22;;;12.67;100.00
74708;BME280;63360;50.104;8.074;2022-10-16T05:49:55;97056.00;;;12.72;100.00
74708;BME280;63360;50.104;8.074;2022-10-16T05:52:22;97054.81;;;12.70;100.00
74708;BME280;63360;50.104;8.074;2022-10-16T05:54:48;97064.59;;;12.73;100.00
74708;BME280;63360;50.104;8.074;2022-10-16T05:57:14;97070.25;;;12.75;100.00
74708;BME280;63360;50.104;8.074;2022-10-16T05:59:41;97067.22;;;12.73;100.00
74708;BME280;63360;50.104;8.074;2022-10-16T06:02:12;97070.25;;;12.75;100.00
74708;BME280;63360;50.104;8.074;2022-10-16T06:04:38;97075.28;;;12.80;100.00
74708;BME280;63360;50.104;8.074;2022-10-16T06:07:05;97076.19;;;12.84;100.00
74708;BME280;63360;50.104;8.074;2022-10-16T06:09:31;97087.81;;;12.87;100.00
74708;BME280;63360;50.104;8.074;2022-10-16T06:11:57;97083.50;;;12.91;100.00
74708;BME280;63360;50.104;8.074;2022-10-16T06:14:24;97065.75;;;12.84;100.00
74708;BME280;63360;50.104;8.074;2022-10-16T06:16:51;97068.78;;;12.86;100.00
74708;BME280;63360;50.104;8.074;2022-10-16T06:19:17;97073.38;;;12.89;100.00
74708;BME280;63360;50.104;8.074;2022-10-16T06:21:44;97066.31;;;12.90;100.00
74708;BME280;63360;50.104;8.074;2022-10-16T06:24:11;97067.72;;;12.87;100.00
74708;BME280;63360;50.104;8.074;2022-10-16T06:26:37;97065.97;;;12.91;100.00
74708;BME280;63360;50.104;8.074;2022-10-16T06:29:04;97061.22;;;12.93;100.00
74708;BME280;63360;50.104;8.074;2022-10-16T06:31:31;97071.19;;;12.91;100.00
74708;BME280;63360;50.104;8.074;2022-10-16T06:33:59;97075.53;;;12.87;100.00
74708;BME280;63360;50.104;8.074;2022-10-16T06:36:27;97079.88;;;12.83;100.00
74708;BME280;63360;50.104;8.074;2022-10-16T06:38:53;97083.81;;;12.89;100.00
74708;BME280;63360;50.104;8.074;2022-10-16T06:41:22;97067.78;;;12.78;100.00
74708;BME280;63360;50.104;8.074;2022-10-16T06:43:49;97084.88;;;12.88;100.00
74708;BME280;63360;50.104;8.074;2022-10-16T06:46:18;97078.94;;;12.88;100.00
74708;BME280;63360;50.104;8.074;2022-10-16T06:48:45;97066.50;;;12.85;100.00
74708;BME280;63360;50.104;8.074;2022-10-16T06:51:17;97063.69;;;12.90;100.00
74708;BME280;63360;50.104;8.074;2022-10-16T06:53:49;97078.94;;;12.88;100.00
74708;BME280;63360;50.104;8.074;2022-10-16T06:56:33;97095.91;;;12.94;100.00
74708;BME280;63360;50.104;8.074;2022-10-16T06:59:00;97099.59;;;12.93;100.00
74708;BME280;63360;50.104;8.074;2022-10-16T07:01:27;97100.47;;;12.97;100.00
74708;BME280;63360;50.104;8.074;2022-10-16T07:03:54;97119.75;;;13.04;100.00
74708;BME280;63360;50.104;8.074;2022-10-16T07:06:22;97129.66;;;13.19;100.00
74708;BME280;63360;50.104;8.074;2022-10-16T07:08:49;97120.81;;;13.12;100.00
74708;BME280;63360;50.104;8.074;2022-10-16T07:11:19;97137.78;;;13.18;100.00
74708;BME280;63360;50.104;8.074;2022-10-16T07:13:46;97130.72;;;13.18;100.00
74708;BME280;63360;50.104;8.074;2022-10-16T07:16:22;97136.84;;;13.22;100.00
74708;BME280;63360;50.104;8.074;2022-10-16T07:18:49;97146.63;;;13.25;100.00
74708;BME280;63360;50.104;8.074;2022-10-16T07:21:21;97154.59;;;13.29;100.00
74708;BME280;63360;50.104;8.074;2022-10-16T07:23:52;97155.22;;;13.26;100.00
74708;BME280;63360;50.104;8.074;2022-10-16T07:26:19;97157.75;;;13.22;100.00
74708;BME280;63360;50.104;8.074;2022-10-16T07:28:46;97161.56;;;13.25;100.00
74708;BME280;63360;50.104;8.074;2022-10-16T07:31:14;97162.63;;;13.24;100.00
74708;BME280;63360;50.104;8.074;2022-10-16T07:33:42;97154.03;;;13.23;100.00
74708;BME280;63360;50.104;8.074;2022-10-16T07:36:11;97171.81;;;13.30;100.00
74708;BME280;63360;50.104;8.074;2022-10-16T07:38:42;97174.72;;;13.28;100.00
74708;BME280;63360;50.104;8.074;2022-10-16T07:41:11;97181.63;;;13.33;100.00
74708;BME280;63360;50.104;8.074;2022-10-16T07:43:38;97185.75;;;13.34;100.00
74708;BME280;63360;50.104;8.074;2022-10-16T07:46:04;97192.94;;;13.37;100.00
74708;BME280;63360;50.104;8.074;2022-10-16T07:48:33;97189.91;;;13.35;100.00
74708;BME280;63360;50.104;8.074;2022-10-16T07:51:02;97192.63;;;13.39;100.00
74708;BME280;63360;50.104;8.074;2022-10-16T07:53:29;97205.88;;;13.33;100.00
74708;BME280;63360;50.104;8.074;2022-10-16T07:56:00;97213.78;;;13.46;100.00
74708;BME280;63360;50.104;8.074;2022-10-16T07:58:28;97214.84;;;13.45;100.00
74708;BME280;63360;50.104;8.074;2022-10-16T08:00:55;97223.44;;;13.45;100.00
74708;BME280;63360;50.104;8.074;2022-10-16T08:03:23;97213.97;;;13.41;100.00
74708;BME280;63360;50.104;8.074;2022-10-16T08:05:50;97240.78;;;13.50;100.00
74708;BME280;63360;50.104;8.074;2022-10-16T08:08:18;97234.53;;;13.42;100.00
74708;BME280;63360;50.104;8.074;2022-10-16T08:10:44;97235.44;;;13.46;100.00
74708;BME280;63360;50.104;8.074;2022-10-16T08:13:11;97235.44;;;13.46;100.00
74708;BME280;63360;50.104;8.074;2022-10-16T08:15:44;97217.91;;;13.47;100.00
74708;BME280;63360;50.104;8.074;2022-10-16T08:18:13;97228.69;;;13.45;100.00
74708;BME280;63360;50.104;8.074;2022-10-16T08:20:40;97231.63;;;13.44;100.00
74708;BME280;63360;50.104;8.074;2022-10-16T08:23:09;97240.34;;;13.48;100.00
74708;BME280;63360;50.104;8.074;2022-10-16T08:25:37;97262.16;;;13.52;100.00
74708;BME280;63360;50.104;8.074;2022-10-16T08:28:05;97251.56;;;13.48;100.00
74708;BME280;63360;50.104;8.074;2022-10-16T08:30:32;97254.59;;;13.50;100.00
74708;BME280;63360;50.104;8.074;2022-10-16T08:32:59;97265.50;;;13.52;100.00
74708;BME280;63360;50.104;8.074;2022-10-16T08:35:25;97269.31;;;13.55;100.00
74708;BME280;63360;50.104;8.074;2022-10-16T08:37:51;97256.47;;;13.50;100.00
74708;BME280;63360;50.104;8.074;2022-10-16T08:40:25;97269.78;;;13.57;100.00
74708;BME280;63360;50.104;8.074;2022-10-16T08:45:34;97262.38;;;13.59;100.00
74708;BME280;63360;50.104;8.074;2022-10-16T08:50:52;97273.06;;;13.66;100.00
74708;BME280;63360;50.104;8.074;2022-10-16T08:53:27;97278.22;;;13.74;100.00
74708;BME280;63360;50.104;8.074;2022-10-16T08:55:54;97284.16;;;13.83;100.00
74708;BME280;63360;50.104;8.074;2022-10-16T08:58:22;97286.88;;;13.87;100.00
74708;BME280;63360;50.104;8.074;2022-10-16T09:00:58;97281.97;;;13.85;100.00
74708;BME280;63360;50.104;8.074;2022-10-16T09:06:34;97309.75;;;13.90;100.00
74708;BME280;63360;50.104;8.074;2022-10-16T09:09:20;97312.06;;;13.91;100.00
74708;BME280;63360;50.104;8.074;2022-10-16T09:12:04;97308.69;;;13.91;100.00
74708;BME280;63360;50.104;8.074;2022-10-16T09:14:40;97315.13;;;13.93;100.00
74708;BME280;63360;50.104;8.074;2022-10-16T09:22:44;97311.03;;;14.05;100.00
74708;BME280;63360;50.104;8.074;2022-10-16T09:25:13;97310.75;;;13.97;100.00
74708;BME280;63360;50.104;8.074;2022-10-16T09:27:40;97321.03;;;14.03;100.00
74708;BME280;63360;50.104;8.074;2022-10-16T09:30:12;97333.25;;;14.11;100.00
74708;BME280;63360;50.104;8.074;2022-10-16T09:32:38;97336.97;;;14.10;100.00
74708;BME280;63360;50.104;8.074;2022-10-16T09:35:11;97331.41;;;14.11;100.00
74708;BME280;63360;50.104;8.074;2022-10-16T09:37:40;97334.47;;;14.13;100.00
74708;BME280;63360;50.104;8.074;2022-10-16T09:40:12;97326.31;;;14.15;100.00
74708;BME280;63360;50.104;8.074;2022-10-16T09:42:39;97319.88;;;14.12;100.00
74708;BME280;63360;50.104;8.074;2022-10-16T09:45:20;97338.53;;;14.23;100.00
74708;BME280;63360;50.104;8.074;2022-10-16T09:47:47;97342.34;;;14.25;100.00
74708;BME280;63360;50.104;8.074;2022-10-16T09:50:22;97335.72;;;14.28;100.00
74708;BME280;63360;50.104;8.074;2022-10-16T09:52:50;97328.00;;;14.31;100.00
74708;BME280;63360;50.104;8.074;2022-10-16T09:55:17;97327.16;;;14.39;100.00
74708;BME280;63360;50.104;8.074;2022-10-16T09:57:53;97337.50;;;14.48;100.00
74708;BME280;63360;50.104;8.074;2022-10-16T10:00:21;97327.16;;;14.51;100.00
74708;BME280;63360;50.104;8.074;2022-10-16T10:02:48;97333.06;;;14.61;100.00
74708;BME280;63360;50.104;8.074;2022-10-16T10:05:20;97321.84;;;14.60;100.00
74708;BME280;63360;50.104;8.074;2022-10-16T10:07:54;97332.09;;;14.77;100.00
74708;BME280;63360;50.104;8.074;2022-10-16T10:10:24;97326.09;;;14.77;100.00
74708;BME280;63360;50.104;8.074;2022-10-16T10:12:52;97330.66;;;14.80;100.00
74708;BME280;63360;50.104;8.074;2022-10-16T10:15:19;97328.38;;;14.78;100.00
74708;BME280;63360;50.104;8.074;2022-10-16T10:17:50;97334.94;;;14.84;100.00
74708;BME280;63360;50.104;8.074;2022-10-16T10:22:51;97338.97;;;14.94;100.00
74708;BME280;63360;50.104;8.074;2022-10-16T10:25:59;97334.16;;;14.96;100.00
74708;BME280;63360;50.104;8.074;2022-10-16T10:31:32;97326.06;;;15.13;100.00
74708;BME280;63360;50.104;8.074;2022-10-16T10:36:36;97330.84;;;15.23;100.00
74708;BME280;63360;50.104;8.074;2022-10-16T10:39:13;97340.34;;;15.40;100.00
74708;BME280;63360;50.104;8.074;2022-10-16T10:52:41;97341.88;;;15.41;100.00
74708;BME280;63360;50.104;8.074;2022-10-16T10:55:33;97342.53;;;15.38;100.00
74708;BME280;63360;50.104;8.074;2022-10-16T11:06:29;97337.72;;;15.40;100.00
74708;BME280;63360;50.104;8.074;2022-10-16T11:11:51;97330.09;;;15.35;100.00
74708;BME280;63360;50.104;8.074;2022-10-16T11:14:22;97331.28;;;15.37;100.00
74708;BME280;63360;50.104;8.074;2022-10-16T11:19:44;97327.44;;;15.47;100.00
74708;BME280;63360;50.104;8.074;2022-10-16T11:22:17;97340.56;;;15.47;100.00
74708;BME280;63360;50.104;8.074;2022-10-16T11:24:53;97341.53;;;15.42;100.00
74708;BME280;63360;50.104;8.074;2022-10-16T11:27:32;97344.81;;;15.39;100.00
74708;BME280;63360;50.104;8.074;2022-10-16T11:30:02;97333.91;;;15.25;100.00
74708;BME280;63360;50.104;8.074;2022-10-16T11:32:42;97328.13;;;15.19;100.00
74708;BME280;63360;50.104;8.074;2022-10-16T11:35:17;97332.31;;;15.08;100.00
74708;BME280;63360;50.104;8.074;2022-10-16T11:37:46;97340.41;;;15.03;100.00
74708;BME280;63360;50.104;8.074;2022-10-16T11:40:25;97341.13;;;15.04;100.00
74708;BME280;63360;50.104;8.074;2022-10-16T11:42:58;97337.88;;;15.07;100.00
74708;BME280;63360;50.104;8.074;2022-10-16T11:48:02;97338.09;;;15.14;100.00
74708;BME280;63360;50.104;8.074;2022-10-16T11:50:39;97348.34;;;15.19;100.00
74708;BME280;63360;50.104;8.074;2022-10-16T11:56:32;97341.22;;;15.19;100.00
74708;BME280;63360;50.104;8.074;2022-10-16T11:59:13;97341.22;;;15.32;100.00
74708;BME280;63360;50.104;8.074;2022-10-16T12:01:47;97341.09;;;15.40;100.00
74708;BME280;63360;50.104;8.074;2022-10-16T12:04:30;97344.38;;;15.49;100.00
74708;BME280;63360;50.104;8.074;2022-10-16T12:07:07;97342.88;;;15.48;100.00
74708;BME280;63360;50.104;8.074;2022-10-16T12:09:39;97344.59;;;15.56;100.00
74708;BME280;63360;50.104;8.074;2022-10-16T12:12:39;97356.28;;;15.59;100.00
74708;BME280;63360;50.104;8.074;2022-10-16T12:17:52;97357.91;;;15.63;100.00
74708;BME280;63360;50.104;8.074;2022-10-16T12:22:56;97360.41;;;15.60;100.00
74708;BME280;63360;50.104;8.074;2022-10-16T12:25:39;97364.22;;;15.62;100.00
74708;BME280;63360;50.104;8.074;2022-10-16T12:30:40;97361.94;;;15.61;100.00
74708;BME280;63360;50.104;8.074;2022-10-16T12:33:28;97360.09;;;15.61;100.00
74708;BME280;63360;50.104;8.074;2022-10-16T12:35:55;97371.84;;;15.67;100.00
74708;BME280;63360;50.104;8.074;2022-10-16T12:38:36;97376.44;;;15.70;100.00
74708;BME280;63360;50.104;8.074;2022-10-16T12:41:06;97358.31;;;15.65;100.00
74708;BME280;63360;50.104;8.074;2022-10-16T12:43:44;97374.81;;;15.78;100.00
74708;BME280;63360;50.104;8.074;2022-10-16T12:48:40;97375.22;;;15.80;100.00
74708;BME280;63360;50.104;8.074;2022-10-16T12:54:19;97378.56;;;15.93;100.00
74708;BME280;63360;50.104;8.074;2022-10-16T13:02:18;97369.50;;;15.90;100.00
74708;BME280;63360;50.104;8.074;2022-10-16T13:10:45;97360.03;;;15.86;100.00
74708;BME280;63360;50.104;8.074;2022-10-16T13:16:02;97356.03;;;15.92;100.00
74708;BME280;63360;50.104;8.074;2022-10-16T13:29:42;97359.06;;;16.06;100.00
74708;BME280;63360;50.104;8.074;2022-10-16T13:32:10;97357.97;;;16.07;100.00
74708;BME280;63360;50.104;8.074;2022-10-16T13:34:45;97368.00;;;16.05;100.00
74708;BME280;63360;50.104;8.074;2022-10-16T13:37:18;97358.22;;;16.02;100.00
74708;BME280;63360;50.104;8.074;2022-10-16T13:39:44;97355.91;;;16.00;100.00
74708;BME280;63360;50.104;8.074;2022-10-16T13:44:45;97348.47;;;16.02;100.00
74708;BME280;63360;50.104;8.074;2022-10-16T13:47:17;97354.41;;;15.99;100.00
74708;BME280;63360;50.104;8.074;2022-10-16T13:49:44;97356.25;;;15.99;100.00
74708;BME280;63360;50.104;8.074;2022-10-16T13:52:21;97356.91;;;15.96;100.00
74708;BME280;63360;50.104;8.074;2022-10-16T13:54:47;97371.88;;;15.95;100.00
74708;BME280;63360;50.104;8.074;2022-10-16T13:57:15;97348.16;;;15.92;100.00
74708;BME280;63360;50.104;8.074;2022-10-16T13:59:53;97355.31;;;15.91;100.00
74708;BME280;63360;50.104;8.074;2022-10-16T14:02:29;97366.78;;;15.87;100.00
74708;BME280;63360;50.104;8.074;2022-10-16T14:04:57;97363.84;;;15.88;100.00
74708;BME280;63360;50.104;8.074;2022-10-16T14:07:27;97358.91;;;15.87;100.00
74708;BME280;63360;50.104;8.074;2022-10-16T14:09:54;97364.78;;;15.96;100.00
74708;BME280;63360;50.104;8.074;2022-10-16T14:12:22;97375.72;;;15.98;100.00
74708;BME280;63360;50.104;8.074;2022-10-16T14:14:54;97362.47;;;15.94;100.00
74708;BME280;63360;50.104;8.074;2022-10-16T14:17:24;97360.50;;;16.03;100.00
74708;BME280;63360;50.104;8.074;2022-10-16T14:19:55;97366.31;;;15.97;100.00
74708;BME280;63360;50.104;8.074;2022-10-16T14:25:00;97367.72;;;15.94;100.00
74708;BME280;63360;50.104;8.074;2022-10-16T14:27:34;97360.25;;;16.08;100.00
74708;BME280;63360;50.104;8.074;2022-10-16T14:30:21;97360.06;;;16.01;100.00
74708;BME280;63360;50.104;8.074;2022-10-16T14:32:56;97358.28;;;16.05;100.00
74708;BME280;63360;50.104;8.074;2022-10-16T14:35:25;97363.41;;;16.14;100.00
74708;BME280;63360;50.104;8.074;2022-10-16T14:37:54;97371.78;;;16.19;100.00
74708;BME280;63360;50.104;8.074;2022-10-16T14:40:23;97369.84;;;16.16;100.00
74708;BME280;63360;50.104;8.074;2022-10-16T14:42:51;97367.34;;;16.08;100.00
74708;BME280;63360;50.104;8.074;2022-10-16T14:45:24;97375.22;;;16.08;100.00